Time,TemperatureF,DewpointF,PressureIn,WindDirection,WindDirectionDegrees,WindSpeedMPH,WindSpeedGustMPH,Humidity,HourlyPrecipIn,Conditions,Clouds,dailyrainin,SoftwareType,DateUTC
2013-02-23 00:04:00,44.8,40.9,30.30,North,0,0.0,0.0,86,0.00,,---,0.00,VWS V14.01,2013-02-23 08:04:00,
2013-02-23 00:14:00,44.4,40.8,30.30,North,0,0.0,0.0,87,0.00,,---,0.00,VWS V14.01,2013-02-23 08:14:00,
2013-02-23 00:19:00,44.2,40.6,30.30,SE,135,0.0,2.0,87,0.00,,---,0.00,VWS V14.01,2013-02-23 08:19:00,
2013-02-23 00:24:00,43.9,40.3,30.27,SE,135,0.0,0.0,87,0.00,,---,0.00,VWS V14.01,2013-02-23 08:24:00,
2013-02-23 00:34:00,43.5,40.2,30.27,NNW,338,0.0,0.0,88,0.00,,---,0.00,VWS V14.01,2013-02-23 08:34:00,
2013-02-23 00:39:00,43.3,40.0,30.27,NW,315,0.0,0.0,88,0.00,,---,0.00,VWS V14.01,2013-02-23 08:39:00,
2013-02-23 00:44:00,43.3,40.0,30.27,SE,135,0.0,0.0,88,0.00,,---,0.00,VWS V14.01,2013-02-23 08:44:00,
2013-02-23 00:49:00,43.5,40.5,30.27,ESE,112,0.0,0.0,89,0.00,,---,0.00,VWS V14.01,2013-02-23 08:49:00,
2013-02-23 00:59:00,43.7,40.7,30.27,SSW,202,0.9,2.7,89,0.00,,---,0.00,VWS V14.01,2013-02-23 08:59:00,
2013-02-23 01:04:00,43.7,40.7,30.27,West,270,0.0,1.3,89,0.00,,---,0.00,VWS V14.01,2013-02-23 09:04:00,
2013-02-23 01:14:00,44.2,41.8,30.30,SSW,202,0.0,0.0,91,0.00,,---,0.00,VWS V14.01,2013-02-23 09:14:00,
2013-02-23 01:24:00,43.3,40.3,30.27,WNW,292,0.0,0.0,89,0.00,,---,0.00,VWS V14.01,2013-02-23 09:24:00,
2013-02-23 01:34:00,43.3,40.6,30.27,West,270,0.0,0.0,90,0.00,,---,0.00,VWS V14.01,2013-02-23 09:34:00,
2013-02-23 01:44:00,43.3,40.9,30.27,WNW,292,0.0,2.5,91,0.00,,---,0.00,VWS V14.01,2013-02-23 09:44:00,
2013-02-23 01:49:00,43.5,41.1,30.27,SW,225,2.2,2.7,91,0.00,,---,0.00,VWS V14.01,2013-02-23 09:49:00,
2013-02-23 01:59:00,43.5,41.3,30.27,West,270,0.0,0.9,92,0.00,,---,0.00,VWS V14.01,2013-02-23 09:59:00,
2013-02-23 02:09:00,43.5,41.3,30.27,WSW,248,0.0,1.1,92,0.00,,---,0.00,VWS V14.01,2013-02-23 10:09:00,
2013-02-23 02:14:00,43.5,41.3,30.27,SSW,202,0.9,2.7,92,0.00,,---,0.00,VWS V14.01,2013-02-23 10:14:00,
2013-02-23 02:24:00,44.1,42.2,30.27,West,270,0.0,0.9,93,0.00,,---,0.00,VWS V14.01,2013-02-23 10:24:00,
2013-02-23 02:29:00,44.2,42.6,30.27,WSW,248,0.9,2.5,94,0.00,,---,0.00,VWS V14.01,2013-02-23 10:29:00,
2013-02-23 02:34:00,44.4,42.8,30.27,WSW,248,0.0,3.1,94,0.00,,---,0.00,VWS V14.01,2013-02-23 10:34:00,
2013-02-23 02:44:00,44.8,43.2,30.27,WSW,248,2.0,2.0,94,0.00,,---,0.00,VWS V14.01,2013-02-23 10:44:00,
2013-02-23 02:54:00,45.5,44.2,30.27,NNW,338,0.0,0.0,95,0.00,,---,0.00,VWS V14.01,2013-02-23 10:54:00,
2013-02-23 02:59:00,45.7,44.3,30.27,WSW,248,0.0,0.0,95,0.00,,---,0.00,VWS V14.01,2013-02-23 10:59:00,
2013-02-23 03:09:00,46.2,44.9,30.27,WSW,248,0.0,2.5,95,0.00,,---,0.00,VWS V14.01,2013-02-23 11:09:00,
2013-02-23 03:19:00,46.6,45.2,30.27,SW,225,0.0,2.0,95,0.00,,---,0.00,VWS V14.01,2013-02-23 11:19:00,
2013-02-23 03:24:00,46.6,45.2,30.27,SSW,202,0.0,0.0,95,0.00,,---,0.00,VWS V14.01,2013-02-23 11:24:00,
2013-02-23 03:34:00,46.9,45.6,30.27,SSW,202,0.0,0.0,95,0.00,,---,0.00,VWS V14.01,2013-02-23 11:34:00,
2013-02-23 03:44:00,47.1,45.8,30.24,WNW,292,0.0,1.6,95,0.00,,---,0.00,VWS V14.01,2013-02-23 11:44:00,
2013-02-23 03:54:00,47.3,45.9,30.27,WNW,292,0.0,2.2,95,0.00,,---,0.00,VWS V14.01,2013-02-23 11:54:00,
2013-02-23 03:59:00,47.5,46.1,30.27,WSW,248,0.0,2.2,95,0.00,,---,0.00,VWS V14.01,2013-02-23 11:59:00,
2013-02-23 04:09:00,47.7,46.3,30.24,WSW,248,0.0,0.0,95,0.00,,---,0.00,VWS V14.01,2013-02-23 12:09:00,
2013-02-23 04:14:00,47.7,46.3,30.24,WSW,248,1.1,1.6,95,0.00,,---,0.00,VWS V14.01,2013-02-23 12:14:00,
2013-02-23 04:19:00,47.8,46.5,30.24,SSW,202,0.9,2.9,95,0.00,,---,0.00,VWS V14.01,2013-02-23 12:19:00,
2013-02-23 04:29:00,48.0,46.9,30.24,WSW,248,0.0,2.5,96,0.00,,---,0.00,VWS V14.01,2013-02-23 12:29:00,
2013-02-23 04:34:00,48.2,47.1,30.24,WSW,248,0.0,2.5,96,0.00,,---,0.00,VWS V14.01,2013-02-23 12:34:00,
2013-02-23 04:39:00,48.4,47.6,30.24,SW,225,2.9,4.0,97,0.00,,---,0.00,VWS V14.01,2013-02-23 12:39:00,
2013-02-23 04:44:00,48.4,47.8,30.24,West,270,0.0,3.6,98,0.00,,---,0.00,VWS V14.01,2013-02-23 12:44:00,
2013-02-23 04:54:00,48.6,47.8,30.24,ENE,68,0.0,1.3,97,0.00,,---,0.00,VWS V14.01,2013-02-23 12:54:00,
2013-02-23 04:59:00,48.6,47.8,30.24,WSW,248,0.0,2.5,97,0.00,,---,0.00,VWS V14.01,2013-02-23 12:59:00,
2013-02-23 05:09:00,48.4,47.6,30.24,WSW,248,2.5,3.8,97,0.00,,---,0.00,VWS V14.01,2013-02-23 13:09:00,
2013-02-23 05:19:00,48.2,47.4,30.24,SW,225,1.3,3.6,97,0.00,,---,0.00,VWS V14.01,2013-02-23 13:19:00,
2013-02-23 05:29:00,47.7,46.8,30.21,WNW,292,2.0,4.7,97,0.00,,---,0.00,VWS V14.01,2013-02-23 13:29:00,
2013-02-23 05:39:00,46.9,45.9,30.24,NNW,338,0.0,3.6,96,0.00,,---,0.00,VWS V14.01,2013-02-23 13:39:00,
2013-02-23 05:44:00,46.4,45.0,30.24,NNW,338,2.5,2.5,95,0.00,,---,0.00,VWS V14.01,2013-02-23 13:44:00,
2013-02-23 05:54:00,46.0,45.0,30.24,SSW,202,1.3,1.3,96,0.00,,---,0.00,VWS V14.01,2013-02-23 13:54:00,
2013-02-23 06:04:00,45.3,44.2,30.24,ENE,68,0.0,0.9,96,0.00,,---,0.00,VWS V14.01,2013-02-23 14:04:00,
2013-02-23 06:14:00,45.1,44.1,30.24,West,270,0.0,2.9,96,0.00,,---,0.00,VWS V14.01,2013-02-23 14:14:00,
2013-02-23 06:19:00,44.8,43.4,30.24,ENE,68,0.0,2.2,95,0.00,,---,0.00,VWS V14.01,2013-02-23 14:19:00,
2013-02-23 06:24:00,44.4,43.1,30.27,NNW,338,0.0,1.6,95,0.00,,---,0.00,VWS V14.01,2013-02-23 14:24:00,
2013-02-23 06:29:00,43.9,42.5,30.27,NNW,338,0.0,0.0,95,0.00,,---,0.00,VWS V14.01,2013-02-23 14:29:00,
2013-02-23 06:39:00,43.3,42.0,30.27,NE,45,0.0,0.0,95,0.00,,---,0.00,VWS V14.01,2013-02-23 14:39:00,
2013-02-23 06:44:00,42.8,41.2,30.27,NE,45,0.0,0.0,94,0.00,,---,0.00,VWS V14.01,2013-02-23 14:44:00,
2013-02-23 06:54:00,42.3,40.9,30.27,NNW,338,1.1,1.1,95,0.00,,---,0.00,VWS V14.01,2013-02-23 14:54:00,
2013-02-23 07:04:00,42.1,41.0,30.27,North,0,0.0,0.0,96,0.00,,---,0.00,VWS V14.01,2013-02-23 15:04:00,
2013-02-23 07:14:00,42.3,41.5,30.27,NNE,22,0.0,1.6,97,0.00,,---,0.00,VWS V14.01,2013-02-23 15:14:00,
2013-02-23 07:24:00,42.4,41.9,30.27,NNE,22,0.0,0.0,98,0.00,,---,0.00,VWS V14.01,2013-02-23 15:24:00,
2013-02-23 07:29:00,42.4,41.7,30.27,NNE,22,0.0,0.0,97,0.00,,---,0.00,VWS V14.01,2013-02-23 15:29:00,
2013-02-23 07:39:00,46.6,46.0,30.30,NNE,22,0.0,0.0,98,0.00,,---,0.00,VWS V14.01,2013-02-23 15:39:00,
2013-02-23 07:44:00,47.8,47.3,30.30,North,0,0.0,2.0,98,0.00,,---,0.00,VWS V14.01,2013-02-23 15:44:00,
2013-02-23 07:54:00,49.3,47.9,30.30,WNW,292,0.0,2.7,95,0.00,,---,0.00,VWS V14.01,2013-02-23 15:54:00,
2013-02-23 08:04:00,50.7,48.2,30.30,SSW,202,0.0,2.0,91,0.00,,---,0.00,VWS V14.01,2013-02-23 16:04:00,
2013-02-23 08:09:00,51.3,47.5,30.30,West,270,0.0,1.6,87,0.00,,---,0.00,VWS V14.01,2013-02-23 16:09:00,
2013-02-23 08:14:00,51.6,47.9,30.30,ESE,112,0.0,3.6,87,0.00,,---,0.00,VWS V14.01,2013-02-23 16:14:00,
2013-02-23 08:24:00,53.1,46.4,30.30,ENE,68,1.6,3.1,78,0.00,,---,0.00,VWS V14.01,2013-02-23 16:24:00,
2013-02-23 08:34:00,54.0,45.2,30.30,ENE,68,2.0,2.9,72,0.00,,---,0.00,VWS V14.01,2013-02-23 16:34:00,
2013-02-23 08:39:00,54.1,43.0,30.30,NW,315,2.2,2.9,66,0.00,,---,0.00,VWS V14.01,2013-02-23 16:39:00,
2013-02-23 08:49:00,55.6,38.7,30.30,NW,315,3.4,4.0,53,0.00,,---,0.00,VWS V14.01,2013-02-23 16:49:00,
2013-02-23 08:54:00,55.8,39.4,30.30,ENE,68,3.4,4.5,54,0.00,,---,0.00,VWS V14.01,2013-02-23 16:54:00,
2013-02-23 08:59:00,55.9,38.6,30.30,North,0,4.9,4.9,52,0.00,,---,0.00,VWS V14.01,2013-02-23 16:59:00,
2013-02-23 09:09:00,56.7,36.7,30.30,WNW,292,3.4,4.3,47,0.00,,---,0.00,VWS V14.01,2013-02-23 17:09:00,
2013-02-23 09:14:00,56.8,36.3,30.30,WNW,292,1.1,3.4,46,0.00,,---,0.00,VWS V14.01,2013-02-23 17:14:00,
2013-02-23 09:24:00,58.3,37.6,30.30,WSW,248,1.1,4.3,46,0.00,,---,0.00,VWS V14.01,2013-02-23 17:24:00,
2013-02-23 09:34:00,58.5,35.5,30.30,NE,45,2.9,3.8,42,0.00,,---,0.00,VWS V14.01,2013-02-23 17:34:00,
2013-02-23 09:39:00,58.8,34.6,30.27,ENE,68,2.5,4.7,40,0.00,,---,0.00,VWS V14.01,2013-02-23 17:39:00,
2013-02-23 09:49:00,59.4,34.4,30.27,NW,315,3.4,3.8,39,0.00,,---,0.00,VWS V14.01,2013-02-23 17:49:00,
2013-02-23 09:54:00,59.7,36.6,30.30,WNW,292,1.1,4.9,42,0.00,,---,0.00,VWS V14.01,2013-02-23 17:54:00,
2013-02-23 09:59:00,60.8,37.0,30.30,ESE,112,1.1,2.9,41,0.00,,---,0.00,VWS V14.01,2013-02-23 17:59:00,
2013-02-23 10:09:00,60.8,34.4,30.30,NE,45,2.7,4.9,37,0.00,,---,0.00,VWS V14.01,2013-02-23 18:09:00,
2013-02-23 10:19:00,62.4,35.1,30.30,NNE,22,2.7,5.8,36,0.00,,---,0.00,VWS V14.01,2013-02-23 18:19:00,
2013-02-23 10:24:00,62.6,34.6,30.30,ENE,68,2.7,5.6,35,0.00,,---,0.00,VWS V14.01,2013-02-23 18:24:00,
2013-02-23 10:34:00,63.9,35.0,30.30,NNE,22,2.7,3.4,34,0.00,,---,0.00,VWS V14.01,2013-02-23 18:34:00,
2013-02-23 10:44:00,64.2,31.3,30.30,NNW,338,3.1,7.2,29,0.00,,---,0.00,VWS V14.01,2013-02-23 18:44:00,
2013-02-23 10:54:00,64.6,29.0,30.33,NW,315,3.1,9.6,26,0.00,,---,0.00,VWS V14.01,2013-02-23 18:54:00,
2013-02-23 10:59:00,64.8,29.1,30.33,North,0,3.8,6.0,26,0.00,,---,0.00,VWS V14.01,2013-02-23 18:59:00,
2013-02-23 11:09:00,65.3,30.5,30.30,SSE,158,1.6,5.6,27,0.00,,---,0.00,VWS V14.01,2013-02-23 19:09:00,
2013-02-23 11:19:00,64.8,28.1,30.30,NNW,338,3.6,6.5,25,0.00,,---,0.00,VWS V14.01,2013-02-23 19:19:00,
2013-02-23 11:24:00,65.3,28.6,30.30,North,0,5.4,6.0,25,0.00,,---,0.00,VWS V14.01,2013-02-23 19:24:00,
2013-02-23 11:29:00,65.3,28.6,30.30,NNW,338,5.4,7.2,25,0.00,,---,0.00,VWS V14.01,2013-02-23 19:29:00,
2013-02-23 11:34:00,66.4,30.5,30.30,WSW,248,3.1,5.4,26,0.00,,---,0.00,VWS V14.01,2013-02-23 19:34:00,
2013-02-23 11:39:00,66.2,29.4,30.30,North,0,2.9,3.8,25,0.00,,---,0.00,VWS V14.01,2013-02-23 19:39:00,
2013-02-23 11:44:00,66.7,30.8,30.30,SSW,202,0.0,3.6,26,0.00,,---,0.00,VWS V14.01,2013-02-23 19:44:00,
2013-02-23 11:54:00,67.6,29.6,30.30,NW,315,2.2,6.3,24,0.00,,---,0.00,VWS V14.01,2013-02-23 19:54:00,
2013-02-23 11:59:00,67.1,29.1,30.30,NNW,338,4.9,5.4,24,0.00,,---,0.00,VWS V14.01,2013-02-23 19:59:00,
2013-02-23 12:09:00,67.8,29.7,30.27,NW,315,2.7,3.8,24,0.00,,---,0.00,VWS V14.01,2013-02-23 20:09:00,
2013-02-23 12:14:00,67.3,29.3,30.27,NNW,338,2.9,9.8,24,0.00,,---,0.00,VWS V14.01,2013-02-23 20:14:00,
2013-02-23 12:19:00,68.2,29.0,30.27,North,0,2.2,4.0,23,0.00,,---,0.00,VWS V14.01,2013-02-23 20:19:00,
2013-02-23 12:24:00,67.8,29.7,30.27,NW,315,1.6,6.0,24,0.00,,---,0.00,VWS V14.01,2013-02-23 20:24:00,
2013-02-23 12:29:00,68.5,29.3,30.27,SSW,202,2.0,3.8,23,0.00,,---,0.00,VWS V14.01,2013-02-23 20:29:00,
2013-02-23 12:34:00,68.0,27.8,30.27,ENE,68,2.7,6.0,22,0.00,,---,0.00,VWS V14.01,2013-02-23 20:34:00,
2013-02-23 12:39:00,67.8,28.7,30.27,WNW,292,3.1,7.4,23,0.00,,---,0.00,VWS V14.01,2013-02-23 20:39:00,
2013-02-23 12:44:00,67.1,28.1,30.27,NNE,22,4.0,4.9,23,0.00,,---,0.00,VWS V14.01,2013-02-23 20:44:00,
2013-02-23 12:49:00,67.6,28.5,30.27,North,0,4.7,6.3,23,0.00,,---,0.00,VWS V14.01,2013-02-23 20:49:00,
2013-02-23 12:54:00,68.7,29.5,30.27,ESE,112,2.7,4.7,23,0.00,,---,0.00,VWS V14.01,2013-02-23 20:54:00,
2013-02-23 12:59:00,69.1,29.8,30.27,NNW,338,3.1,4.5,23,0.00,,---,0.00,VWS V14.01,2013-02-23 20:59:00,
2013-02-23 13:09:00,68.9,28.5,30.24,NNE,22,2.9,6.0,22,0.00,,---,0.00,VWS V14.01,2013-02-23 21:09:00,
2013-02-23 13:14:00,68.7,28.4,30.24,NNE,22,4.3,6.9,22,0.00,,---,0.00,VWS V14.01,2013-02-23 21:14:00,
2013-02-23 13:19:00,68.5,28.2,30.24,NNW,338,2.2,6.3,22,0.00,,---,0.00,VWS V14.01,2013-02-23 21:19:00,
2013-02-23 13:24:00,69.1,28.7,30.24,SSW,202,2.5,4.9,22,0.00,,---,0.00,VWS V14.01,2013-02-23 21:24:00,
2013-02-23 13:29:00,68.9,28.5,30.24,NNW,338,3.4,5.6,22,0.00,,---,0.00,VWS V14.01,2013-02-23 21:29:00,
2013-02-23 13:34:00,69.1,28.7,30.24,NNE,22,4.9,6.7,22,0.00,,---,0.00,VWS V14.01,2013-02-23 21:34:00,
2013-02-23 13:39:00,69.6,29.1,30.24,NNW,338,3.4,6.3,22,0.00,,---,0.00,VWS V14.01,2013-02-23 21:39:00,
2013-02-23 13:44:00,69.6,29.1,30.24,NNE,22,2.7,8.7,22,0.00,,---,0.00,VWS V14.01,2013-02-23 21:44:00,
2013-02-23 13:49:00,69.3,26.5,30.24,SW,225,1.6,8.7,20,0.00,,---,0.00,VWS V14.01,2013-02-23 21:49:00,
2013-02-23 13:54:00,69.3,26.5,30.24,NNE,22,3.8,6.5,20,0.00,,---,0.00,VWS V14.01,2013-02-23 21:54:00,
2013-02-23 13:59:00,69.4,29.0,30.24,NNW,338,3.8,4.0,22,0.00,,---,0.00,VWS V14.01,2013-02-23 21:59:00,
2013-02-23 14:04:00,69.6,29.1,30.24,NNE,22,2.9,4.9,22,0.00,,---,0.00,VWS V14.01,2013-02-23 22:04:00,
2013-02-23 14:09:00,69.8,25.7,30.24,NW,315,2.5,5.6,19,0.00,,---,0.00,VWS V14.01,2013-02-23 22:09:00,
2013-02-23 14:19:00,69.6,22.9,30.24,WNW,292,5.8,6.0,17,0.00,,---,0.00,VWS V14.01,2013-02-23 22:19:00,
2013-02-23 14:24:00,70.5,26.3,30.24,NNE,22,3.8,5.8,19,0.00,,---,0.00,VWS V14.01,2013-02-23 22:24:00,
2013-02-23 14:29:00,70.7,26.5,30.24,SE,135,2.9,4.3,19,0.00,,---,0.00,VWS V14.01,2013-02-23 22:29:00,
2013-02-23 14:34:00,70.3,26.2,30.24,SW,225,3.8,7.8,19,0.00,,---,0.00,VWS V14.01,2013-02-23 22:34:00,
2013-02-23 14:39:00,70.2,29.6,30.24,NE,45,1.6,6.3,22,0.00,,---,0.00,VWS V14.01,2013-02-23 22:39:00,
2013-02-23 14:44:00,70.5,29.9,30.24,NE,45,2.9,4.0,22,0.00,,---,0.00,VWS V14.01,2013-02-23 22:44:00,
2013-02-23 14:49:00,71.1,26.8,30.24,WSW,248,1.6,5.4,19,0.00,,---,0.00,VWS V14.01,2013-02-23 22:49:00,
2013-02-23 14:54:00,70.5,26.3,30.24,WNW,292,3.8,4.0,19,0.00,,---,0.00,VWS V14.01,2013-02-23 22:54:00,
2013-02-23 14:59:00,70.2,26.0,30.24,North,0,3.8,4.0,19,0.00,,---,0.00,VWS V14.01,2013-02-23 22:59:00,
2013-02-23 15:09:00,69.1,28.7,30.21,SSW,202,6.0,6.0,22,0.00,,---,0.00,VWS V14.01,2013-02-23 23:09:00,
2013-02-23 15:14:00,68.7,28.4,30.21,WSW,248,1.1,6.0,22,0.00,,---,0.00,VWS V14.01,2013-02-23 23:14:00,
2013-02-23 15:19:00,68.5,29.3,30.21,WSW,248,3.8,4.7,23,0.00,,---,0.00,VWS V14.01,2013-02-23 23:19:00,
2013-02-23 15:24:00,68.4,29.1,30.21,SSE,158,2.2,4.0,23,0.00,,---,0.00,VWS V14.01,2013-02-23 23:24:00,
2013-02-23 15:29:00,68.0,28.9,30.21,NW,315,0.0,6.0,23,0.00,,---,0.00,VWS V14.01,2013-02-23 23:29:00,
2013-02-23 15:39:00,68.2,29.0,30.21,NNW,338,3.4,5.6,23,0.00,,---,0.00,VWS V14.01,2013-02-23 23:39:00,
2013-02-23 15:44:00,67.5,28.4,30.21,WNW,292,4.7,4.7,23,0.00,,---,0.00,VWS V14.01,2013-02-23 23:44:00,
2013-02-23 15:49:00,67.1,28.1,30.21,NNW,338,2.7,4.7,23,0.00,,---,0.00,VWS V14.01,2013-02-23 23:49:00,
2013-02-23 15:54:00,66.9,27.9,30.21,North,0,2.7,4.3,23,0.00,,---,0.00,VWS V14.01,2013-02-23 23:54:00,
2013-02-23 15:59:00,66.7,27.8,30.21,WSW,248,2.7,6.0,23,0.00,,---,0.00,VWS V14.01,2013-02-23 23:59:00,
2013-02-23 16:09:00,65.7,26.9,30.21,SSW,202,3.8,10.3,23,0.00,,---,0.00,VWS V14.01,2013-02-24 00:09:00,
2013-02-23 16:14:00,65.8,28.1,30.21,SW,225,1.1,6.5,24,0.00,,---,0.00,VWS V14.01,2013-02-24 00:14:00,
2013-02-23 16:19:00,64.9,27.3,30.21,NNE,22,2.7,5.6,24,0.00,,---,0.00,VWS V14.01,2013-02-24 00:19:00,
2013-02-23 16:24:00,65.8,28.1,30.21,NW,315,2.2,3.6,24,0.00,,---,0.00,VWS V14.01,2013-02-24 00:24:00,
2013-02-23 16:29:00,65.5,27.8,30.21,West,270,1.6,3.6,24,0.00,,---,0.00,VWS V14.01,2013-02-24 00:29:00,
2013-02-23 16:34:00,65.1,27.5,30.21,SSE,158,2.5,4.3,24,0.00,,---,0.00,VWS V14.01,2013-02-24 00:34:00,
2013-02-23 16:39:00,64.9,27.3,30.21,SSW,202,2.5,5.8,24,0.00,,---,0.00,VWS V14.01,2013-02-24 00:39:00,
2013-02-23 16:44:00,65.1,27.5,30.21,NNW,338,2.2,3.8,24,0.00,,---,0.00,VWS V14.01,2013-02-24 00:44:00,
2013-02-23 16:49:00,64.4,26.9,30.21,NNW,338,3.1,3.8,24,0.00,,---,0.00,VWS V14.01,2013-02-24 00:49:00,
2013-02-23 16:54:00,63.9,27.4,30.21,SSW,202,1.1,4.3,25,0.00,,---,0.00,VWS V14.01,2013-02-24 00:54:00,
2013-02-23 16:59:00,64.2,27.7,30.21,SSW,202,1.3,4.3,25,0.00,,---,0.00,VWS V14.01,2013-02-24 00:59:00,
2013-02-23 17:09:00,63.0,26.6,30.21,NW,315,2.7,6.3,25,0.00,,---,0.00,VWS V14.01,2013-02-24 01:09:00,
2013-02-23 17:14:00,60.6,25.6,30.21,WSW,248,3.4,4.5,26,0.00,,---,0.00,VWS V14.01,2013-02-24 01:14:00,
2013-02-23 17:19:00,58.1,25.2,30.21,WSW,248,2.0,3.6,28,0.00,,---,0.00,VWS V14.01,2013-02-24 01:19:00,
2013-02-23 17:24:00,56.8,25.8,30.21,NW,315,0.0,4.0,30,0.00,,---,0.00,VWS V14.01,2013-02-24 01:24:00,
2013-02-23 17:29:00,55.8,27.1,30.21,South,180,0.0,2.7,33,0.00,,---,0.00,VWS V14.01,2013-02-24 01:29:00,
2013-02-23 17:34:00,54.7,28.3,30.21,WSW,248,0.0,5.6,36,0.00,,---,0.00,VWS V14.01,2013-02-24 01:34:00,
2013-02-23 17:39:00,54.0,27.6,30.24,WSW,248,0.0,2.7,36,0.00,,---,0.00,VWS V14.01,2013-02-24 01:39:00,
2013-02-23 17:44:00,53.1,27.5,30.24,NW,315,0.9,2.5,37,0.00,,---,0.00,VWS V14.01,2013-02-24 01:44:00,
2013-02-23 17:49:00,52.2,27.3,30.24,North,0,2.7,2.7,38,0.00,,---,0.00,VWS V14.01,2013-02-24 01:49:00,
2013-02-23 17:54:00,51.6,27.5,30.24,NNW,338,2.9,4.0,39,0.00,,---,0.00,VWS V14.01,2013-02-24 01:54:00,
2013-02-23 17:59:00,51.1,27.6,30.24,NNW,338,0.0,2.9,40,0.00,,---,0.00,VWS V14.01,2013-02-24 01:59:00,
2013-02-23 18:09:00,49.8,27.7,30.24,North,0,0.0,1.6,42,0.00,,---,0.00,VWS V14.01,2013-02-24 02:09:00,
2013-02-23 18:14:00,49.3,27.2,30.24,NNE,22,1.1,1.1,42,0.00,,---,0.00,VWS V14.01,2013-02-24 02:14:00,
2013-02-23 18:19:00,48.9,27.4,30.24,NNW,338,0.0,1.6,43,0.00,,---,0.00,VWS V14.01,2013-02-24 02:19:00,
2013-02-23 18:24:00,48.7,28.9,30.24,NNW,338,0.0,3.4,46,0.00,,---,0.00,VWS V14.01,2013-02-24 02:24:00,
2013-02-23 18:29:00,48.7,29.4,30.24,North,0,0.9,2.9,47,0.00,,---,0.00,VWS V14.01,2013-02-24 02:29:00,
2013-02-23 18:34:00,48.4,29.1,30.24,NNE,22,0.0,1.3,47,0.00,,---,0.00,VWS V14.01,2013-02-24 02:34:00,
2013-02-23 18:39:00,48.0,29.3,30.24,NNW,338,0.0,1.1,48,0.00,,---,0.00,VWS V14.01,2013-02-24 02:39:00,
2013-02-23 18:44:00,47.8,29.6,30.24,NNW,338,1.6,2.9,49,0.00,,---,0.00,VWS V14.01,2013-02-24 02:44:00,
2013-02-23 18:49:00,47.7,29.5,30.24,North,0,0.9,1.6,49,0.00,,---,0.00,VWS V14.01,2013-02-24 02:49:00,
2013-02-23 18:54:00,47.3,30.1,30.24,NNE,22,1.3,3.1,51,0.00,,---,0.00,VWS V14.01,2013-02-24 02:54:00,
2013-02-23 18:59:00,46.9,29.8,30.24,North,0,0.0,1.3,51,0.00,,---,0.00,VWS V14.01,2013-02-24 02:59:00,
2013-02-23 19:09:00,45.7,29.1,30.21,NNW,338,0.0,2.2,52,0.00,,---,0.00,VWS V14.01,2013-02-24 03:09:00,
2013-02-23 19:14:00,45.1,28.6,30.21,NNE,22,0.0,0.0,52,0.00,,---,0.00,VWS V14.01,2013-02-24 03:14:00,
2013-02-23 19:24:00,44.4,28.8,30.21,NNW,338,0.0,0.0,54,0.00,,---,0.00,VWS V14.01,2013-02-24 03:24:00,
2013-02-23 19:29:00,44.2,29.1,30.21,NNW,338,0.0,0.0,55,0.00,,---,0.00,VWS V14.01,2013-02-24 03:29:00,
2013-02-23 19:34:00,44.2,30.0,30.21,North,0,2.0,2.2,57,0.00,,---,0.00,VWS V14.01,2013-02-24 03:34:00,
2013-02-23 19:39:00,44.2,30.4,30.24,North,0,1.6,2.0,58,0.00,,---,0.00,VWS V14.01,2013-02-24 03:39:00,
2013-02-23 19:44:00,44.2,30.8,30.24,North,0,2.5,2.7,59,0.00,,---,0.00,VWS V14.01,2013-02-24 03:44:00,
2013-02-23 19:49:00,44.1,31.1,30.24,NW,315,2.9,2.9,60,0.00,,---,0.00,VWS V14.01,2013-02-24 03:49:00,
2013-02-23 19:54:00,44.1,31.5,30.24,NNW,338,2.2,3.1,61,0.00,,---,0.00,VWS V14.01,2013-02-24 03:54:00,
2013-02-23 19:59:00,43.7,30.7,30.24,North,0,1.3,2.5,60,0.00,,---,0.00,VWS V14.01,2013-02-24 03:59:00,
2013-02-23 20:09:00,43.3,31.2,30.24,North,0,2.0,3.4,62,0.00,,---,0.00,VWS V14.01,2013-02-24 04:09:00,
2013-02-23 20:14:00,43.0,30.9,30.24,NNW,338,1.3,2.9,62,0.00,,---,0.00,VWS V14.01,2013-02-24 04:14:00,
2013-02-23 20:24:00,42.6,31.7,30.24,WNW,292,1.1,3.8,65,0.00,,---,0.00,VWS V14.01,2013-02-24 04:24:00,
2013-02-23 20:29:00,42.6,32.1,30.24,NW,315,1.6,3.4,66,0.00,,---,0.00,VWS V14.01,2013-02-24 04:29:00,
2013-02-23 20:34:00,42.4,31.9,30.24,NNW,338,1.3,3.1,66,0.00,,---,0.00,VWS V14.01,2013-02-24 04:34:00,
2013-02-23 20:39:00,42.4,31.9,30.24,NNW,338,3.1,3.1,66,0.00,,---,0.00,VWS V14.01,2013-02-24 04:39:00,
2013-02-23 20:44:00,42.6,32.4,30.24,NNW,338,1.1,3.1,67,0.00,,---,0.00,VWS V14.01,2013-02-24 04:44:00,
2013-02-23 20:49:00,42.6,32.8,30.24,NNW,338,1.6,3.6,68,0.00,,---,0.00,VWS V14.01,2013-02-24 04:49:00,
2013-02-23 20:54:00,42.6,32.8,30.24,NW,315,2.0,4.0,68,0.00,,---,0.00,VWS V14.01,2013-02-24 04:54:00,
2013-02-23 20:59:00,42.6,32.8,30.24,North,0,1.6,3.1,68,0.00,,---,0.00,VWS V14.01,2013-02-24 04:59:00,
2013-02-23 21:04:00,42.4,32.6,30.24,NNW,338,2.5,2.7,68,0.00,,---,0.00,VWS V14.01,2013-02-24 05:04:00,
2013-02-23 21:14:00,42.3,32.8,30.24,North,0,2.0,3.4,69,0.00,,---,0.00,VWS V14.01,2013-02-24 05:14:00,
2013-02-23 21:19:00,42.3,33.2,30.24,NW,315,1.6,3.8,70,0.00,,---,0.00,VWS V14.01,2013-02-24 05:19:00,
2013-02-23 21:24:00,42.1,33.4,30.24,NW,315,3.1,3.6,71,0.00,,---,0.00,VWS V14.01,2013-02-24 05:24:00,
2013-02-23 21:29:00,42.3,33.9,30.24,NNW,338,2.5,3.8,72,0.00,,---,0.00,VWS V14.01,2013-02-24 05:29:00,
2013-02-23 21:34:00,42.3,33.9,30.24,NW,315,3.1,3.6,72,0.00,,---,0.00,VWS V14.01,2013-02-24 05:34:00,
2013-02-23 21:39:00,42.3,33.5,30.27,NNW,338,3.4,4.3,71,0.00,,---,0.00,VWS V14.01,2013-02-24 05:39:00,
2013-02-23 21:44:00,42.1,33.7,30.27,North,0,2.0,3.6,72,0.00,,---,0.00,VWS V14.01,2013-02-24 05:44:00,
2013-02-23 21:49:00,42.1,33.7,30.27,North,0,3.1,6.5,72,0.00,,---,0.00,VWS V14.01,2013-02-24 05:49:00,
2013-02-23 21:54:00,42.1,33.4,30.27,NW,315,4.3,4.3,71,0.00,,---,0.00,VWS V14.01,2013-02-24 05:54:00,
2013-02-23 21:59:00,42.1,33.7,30.27,NNW,338,2.9,4.7,72,0.00,,---,0.00,VWS V14.01,2013-02-24 05:59:00,
2013-02-23 22:09:00,41.5,33.5,30.27,NNW,338,1.6,3.6,73,0.00,,---,0.00,VWS V14.01,2013-02-24 06:09:00,
2013-02-23 22:14:00,41.2,32.8,30.27,NW,315,1.3,3.6,72,0.00,,---,0.00,VWS V14.01,2013-02-24 06:14:00,
2013-02-23 22:19:00,41.0,33.0,30.27,North,0,1.6,4.5,73,0.00,,---,0.00,VWS V14.01,2013-02-24 06:19:00,
2013-02-23 22:24:00,41.0,33.0,30.27,NNE,22,3.6,3.6,73,0.00,,---,0.00,VWS V14.01,2013-02-24 06:24:00,
2013-02-23 22:29:00,40.8,33.2,30.27,NW,315,1.3,4.3,74,0.00,,---,0.00,VWS V14.01,2013-02-24 06:29:00,
2013-02-23 22:34:00,40.6,33.3,30.27,NW,315,3.6,4.3,75,0.00,,---,0.00,VWS V14.01,2013-02-24 06:34:00,
2013-02-23 22:39:00,40.6,33.3,30.27,NNW,338,3.1,3.6,75,0.00,,---,0.00,VWS V14.01,2013-02-24 06:39:00,
2013-02-23 22:44:00,40.8,33.8,30.27,NW,315,2.5,4.3,76,0.00,,---,0.00,VWS V14.01,2013-02-24 06:44:00,
2013-02-23 22:49:00,40.8,33.8,30.27,North,0,2.2,4.0,76,0.00,,---,0.00,VWS V14.01,2013-02-24 06:49:00,
2013-02-23 22:54:00,40.6,33.3,30.27,NNW,338,1.3,4.5,75,0.00,,---,0.00,VWS V14.01,2013-02-24 06:54:00,
2013-02-23 22:59:00,40.6,33.3,30.27,NE,45,2.0,4.9,75,0.00,,---,0.00,VWS V14.01,2013-02-24 06:59:00,
2013-02-23 23:09:00,40.6,33.3,30.27,NNW,338,3.1,3.8,75,0.00,,---,0.00,VWS V14.01,2013-02-24 07:09:00,
2013-02-23 23:19:00,40.5,32.8,30.27,NNW,338,1.1,4.5,74,0.00,,---,0.00,VWS V14.01,2013-02-24 07:19:00,
2013-02-23 23:24:00,40.5,33.2,30.24,North,0,3.4,3.8,75,0.00,,---,0.00,VWS V14.01,2013-02-24 07:24:00,
2013-02-23 23:29:00,40.8,33.5,30.24,North,0,1.1,4.0,75,0.00,,---,0.00,VWS V14.01,2013-02-24 07:29:00,
2013-02-23 23:34:00,40.6,33.0,30.24,NNW,338,1.3,3.4,74,0.00,,---,0.00,VWS V14.01,2013-02-24 07:34:00,
2013-02-23 23:39:00,41.0,33.0,30.24,WNW,292,2.5,4.3,73,0.00,,---,0.00,VWS V14.01,2013-02-24 07:39:00,
2013-02-23 23:44:00,41.0,32.7,30.24,NNW,338,1.6,4.0,72,0.00,,---,0.00,VWS V14.01,2013-02-24 07:44:00,
2013-02-23 23:54:00,41.4,32.3,30.27,NNW,338,2.7,3.8,70,0.00,,---,0.00,VWS V14.01,2013-02-24 07:54:00,